GMTTLPFR

Guest
Details From GMTT - IBN BATOUTA
To LPFR - Faro
Flight Number -
Tags generated
Created
Modified
Stats Distance 128 nm / 236 km
Max Altitude 7,400 ft / 2,256 m
Waypoints 3
Social Downloads 0
Likes 0
Share VATSIM

Download

Looking for another format? Having issues loading an existing format? Contact us
Advertisement - Login to hide

Notes

Basic altitude profile: - Ascent Rate: 2500ft/min - Ascent Speed: 250kts - Cruise Altitude: 35000ft - Cruise Speed: 420kts - Descent Rate: 1500ft/min - Descent Speed: 250kts Options: - Use NATs: yes - Use PACOTS: yes - Use low airways: no - Use high airways: yes

Route

GMTT ADUBI LPFR

ID Type Via Altitude Latitude Longitude Leg Dist Tot Dist Heading (true) Name
O GMTT APT - 0 ft / 0 m 35.72691˚ -5.91690˚ - 0 nm - IBN BATOUTA
ADUBI FIX - 7,400 ft / 2,256 m 35.83333˚ -6.32389˚ 20 nm 20 nm 288° / 288° -
O LPFR APT - 0 ft / 0 m 37.01534˚ -7.97233˚ 106 nm 127 nm 312° / 311° Faro

Altitude Profile

Advertisement - Login to hide

GMTT

Details ICAO GMTT (TNG)
Name IBN BATOUTA
Region Morocco
Timezone Africa/Casablanca (UTC+0.0)
Stats Elevation 62 ft / 19 m (AMSL)
Location 35.726911° -5.916900°
Runways 2
Magnetic Variation 1.290° W

METAR

GMTT 140400Z VRB02KT 6000 FEW013 06/04 Q1027 NOSIG

Decode

TAF

TAF GMTT 132300Z 1400/1506 07003KT 8000 SCT015 BECMG 1406/1409 28015KT 9999 SCT016

Decode

Departure Runways

ID Width Length Bearing (true) Bearing (mag) Surface Threshold Offset Overrun Length
07 98 ft / 30 m 6,555 ft / 1,998 m 69.91° 71.20° Asphalt 0 ft / 0 m 0 ft / 0 m
10 148 ft / 45 m 11,465 ft / 3,495 m 96.01° 97.30° Asphalt 0 ft / 0 m 197 ft / 60 m
25 98 ft / 30 m 6,555 ft / 1,998 m 249.92° 251.21° Asphalt 0 ft / 0 m 0 ft / 0 m
28 148 ft / 45 m 11,465 ft / 3,495 m 276.03° 277.32° Asphalt 1,640 ft / 500 m 197 ft / 60 m

LPFR

Details ICAO LPFR (FAO)
Name Faro
Region Portugal
Timezone Europe/Lisbon (UTC+0.0)
Stats Elevation 24 ft / 7 m (AMSL)
Location 37.015336° -7.972327°
Runways 1
Magnetic Variation 1.936° W

METAR

LPFR 140400Z 02006KT CAVOK 07/04 Q1027

Decode

TAF

TAF LPFR 132300Z 1400/1424 VRB03KT CAVOK BECMG 1400/1403 9999 SCT030 BECMG 1409/1412 27008KT BKN025

Decode

Destination Runways

ID Width Length Bearing (true) Bearing (mag) Surface Threshold Offset Overrun Length
10 148 ft / 45 m 8,148 ft / 2,484 m 100.08° 102.02° Asphalt 148 ft / 45 m 0 ft / 0 m
28 148 ft / 45 m 8,148 ft / 2,484 m 280.10° 282.04° Asphalt 148 ft / 45 m 0 ft / 0 m

Approach Navaids

Runway Type Ident Frequency Range Bearing (true) Bearing (mag) Slope Elevation
28 Localiser IIF 109.50 MHz 18 nm / 33 km 280.16° 282.10° - 24 ft / 7 m (AMSL)
28 Glidescope IIF 109.50 MHz 10 nm / 19 km 280.09° 282.02° 3.00° 24 ft / 7 m (AMSL)
28 DME IIF 109.50 MHz 18 nm / 33 km - - - 24 ft / 7 m (AMSL)